sensor_id;sensor_type;location;lat;lon;timestamp;P1;durP1;ratioP1;P2;durP2;ratioP2
85771;SDS011;76212;56.844;41.394;2024-03-02T00:00:22;88.95;;;35.78;;
85771;SDS011;76212;56.844;41.394;2024-03-02T00:02:50;74.95;;;32.92;;
85771;SDS011;76212;56.844;41.394;2024-03-02T00:05:18;66.07;;;34.22;;
85771;SDS011;76212;56.844;41.394;2024-03-02T00:07:46;63.72;;;33.47;;
85771;SDS011;76212;56.844;41.394;2024-03-02T00:10:20;57.53;;;29.50;;
85771;SDS011;76212;56.844;41.394;2024-03-02T00:12:58;64.53;;;30.38;;
85771;SDS011;76212;56.844;41.394;2024-03-02T00:18:27;65.72;;;33.80;;
85771;SDS011;76212;56.844;41.394;2024-03-02T00:20:58;72.72;;;34.03;;
85771;SDS011;76212;56.844;41.394;2024-03-02T00:23:27;68.82;;;35.97;;
85771;SDS011;76212;56.844;41.394;2024-03-02T00:25:55;74.68;;;36.00;;
85771;SDS011;76212;56.844;41.394;2024-03-02T00:30:55;73.38;;;33.72;;
85771;SDS011;76212;56.844;41.394;2024-03-02T00:33:25;77.35;;;35.75;;
85771;SDS011;76212;56.844;41.394;2024-03-02T00:35:53;69.55;;;31.48;;
85771;SDS011;76212;56.844;41.394;2024-03-02T00:38:22;70.85;;;32.97;;
85771;SDS011;76212;56.844;41.394;2024-03-02T00:40:49;67.72;;;34.22;;
85771;SDS011;76212;56.844;41.394;2024-03-02T00:46:23;55.35;;;29.50;;
85771;SDS011;76212;56.844;41.394;2024-03-02T00:48:53;66.18;;;30.48;;
85771;SDS011;76212;56.844;41.394;2024-03-02T00:51:22;56.10;;;27.50;;
85771;SDS011;76212;56.844;41.394;2024-03-02T00:53:49;56.45;;;29.15;;
85771;SDS011;76212;56.844;41.394;2024-03-02T00:56:22;62.17;;;30.48;;
85771;SDS011;76212;56.844;41.394;2024-03-02T00:58:50;61.92;;;27.90;;
85771;SDS011;76212;56.844;41.394;2024-03-02T01:01:17;53.40;;;28.75;;
85771;SDS011;76212;56.844;41.394;2024-03-02T01:03:43;58.33;;;29.38;;
85771;SDS011;76212;56.844;41.394;2024-03-02T01:06:10;55.58;;;27.80;;
85771;SDS011;76212;56.844;41.394;2024-03-02T01:08:36;52.80;;;27.33;;
85771;SDS011;76212;56.844;41.394;2024-03-02T01:11:03;60.60;;;28.42;;
85771;SDS011;76212;56.844;41.394;2024-03-02T01:13:31;56.88;;;28.17;;
85771;SDS011;76212;56.844;41.394;2024-03-02T01:15:57;58.28;;;28.55;;
85771;SDS011;76212;56.844;41.394;2024-03-02T01:18:24;57.88;;;28.30;;
85771;SDS011;76212;56.844;41.394;2024-03-02T01:20:51;53.25;;;27.45;;
85771;SDS011;76212;56.844;41.394;2024-03-02T01:23:18;65.20;;;30.42;;
85771;SDS011;76212;56.844;41.394;2024-03-02T01:25:46;58.65;;;29.95;;
85771;SDS011;76212;56.844;41.394;2024-03-02T01:28:13;61.53;;;28.88;;
85771;SDS011;76212;56.844;41.394;2024-03-02T01:30:40;59.97;;;29.10;;
85771;SDS011;76212;56.844;41.394;2024-03-02T01:33:07;63.97;;;31.25;;
85771;SDS011;76212;56.844;41.394;2024-03-02T01:35:33;60.97;;;30.73;;
85771;SDS011;76212;56.844;41.394;2024-03-02T01:38:03;56.42;;;29.13;;
85771;SDS011;76212;56.844;41.394;2024-03-02T01:40:34;58.38;;;27.92;;
85771;SDS011;76212;56.844;41.394;2024-03-02T01:43:02;52.13;;;26.85;;
85771;SDS011;76212;56.844;41.394;2024-03-02T01:45:31;45.97;;;23.48;;
85771;SDS011;76212;56.844;41.394;2024-03-02T01:47:58;49.50;;;26.75;;
85771;SDS011;76212;56.844;41.394;2024-03-02T01:50:28;55.10;;;27.88;;
85771;SDS011;76212;56.844;41.394;2024-03-02T01:52:56;54.08;;;29.27;;
85771;SDS011;76212;56.844;41.394;2024-03-02T01:55:23;54.65;;;27.58;;
85771;SDS011;76212;56.844;41.394;2024-03-02T01:57:51;59.30;;;27.35;;
85771;SDS011;76212;56.844;41.394;2024-03-02T02:00:18;50.75;;;26.48;;
85771;SDS011;76212;56.844;41.394;2024-03-02T02:02:46;52.83;;;27.45;;
85771;SDS011;76212;56.844;41.394;2024-03-02T02:05:13;50.92;;;26.88;;
85771;SDS011;76212;56.844;41.394;2024-03-02T02:07:43;70.72;;;32.30;;
85771;SDS011;76212;56.844;41.394;2024-03-02T02:10:10;55.20;;;27.98;;
85771;SDS011;76212;56.844;41.394;2024-03-02T02:12:39;53.95;;;26.83;;
85771;SDS011;76212;56.844;41.394;2024-03-02T02:15:24;51.85;;;26.23;;
85771;SDS011;76212;56.844;41.394;2024-03-02T02:17:52;59.90;;;28.50;;
85771;SDS011;76212;56.844;41.394;2024-03-02T02:20:20;56.92;;;26.25;;
85771;SDS011;76212;56.844;41.394;2024-03-02T02:22:59;53.00;;;26.08;;
85771;SDS011;76212;56.844;41.394;2024-03-02T02:25:27;44.35;;;23.20;;
85771;SDS011;76212;56.844;41.394;2024-03-02T02:27:55;50.75;;;25.20;;
85771;SDS011;76212;56.844;41.394;2024-03-02T02:30:26;49.28;;;24.52;;
85771;SDS011;76212;56.844;41.394;2024-03-02T02:32:53;47.78;;;23.10;;
85771;SDS011;76212;56.844;41.394;2024-03-02T02:35:20;49.72;;;23.95;;
85771;SDS011;76212;56.844;41.394;2024-03-02T02:37:49;51.17;;;24.52;;
85771;SDS011;76212;56.844;41.394;2024-03-02T02:40:16;45.78;;;21.67;;
85771;SDS011;76212;56.844;41.394;2024-03-02T02:42:44;49.88;;;24.25;;
85771;SDS011;76212;56.844;41.394;2024-03-02T02:45:11;56.45;;;26.80;;
85771;SDS011;76212;56.844;41.394;2024-03-02T02:47:40;49.10;;;25.70;;
85771;SDS011;76212;56.844;41.394;2024-03-02T02:50:07;46.05;;;22.63;;
85771;SDS011;76212;56.844;41.394;2024-03-02T02:52:34;49.80;;;25.80;;
85771;SDS011;76212;56.844;41.394;2024-03-02T02:55:06;48.50;;;24.20;;
85771;SDS011;76212;56.844;41.394;2024-03-02T02:57:34;46.20;;;22.45;;
85771;SDS011;76212;56.844;41.394;2024-03-02T03:00:04;45.60;;;22.65;;
85771;SDS011;76212;56.844;41.394;2024-03-02T03:02:38;41.95;;;20.58;;
85771;SDS011;76212;56.844;41.394;2024-03-02T03:05:07;43.53;;;20.00;;
85771;SDS011;76212;56.844;41.394;2024-03-02T03:07:35;51.65;;;23.17;;
85771;SDS011;76212;56.844;41.394;2024-03-02T03:10:02;48.33;;;21.13;;
85771;SDS011;76212;56.844;41.394;2024-03-02T03:12:30;49.75;;;25.10;;
85771;SDS011;76212;56.844;41.394;2024-03-02T03:14:59;52.17;;;25.63;;
85771;SDS011;76212;56.844;41.394;2024-03-02T03:17:26;49.38;;;25.42;;
85771;SDS011;76212;56.844;41.394;2024-03-02T03:19:55;51.17;;;26.08;;
85771;SDS011;76212;56.844;41.394;2024-03-02T03:22:22;46.25;;;23.83;;
85771;SDS011;76212;56.844;41.394;2024-03-02T03:24:48;52.05;;;23.73;;
85771;SDS011;76212;56.844;41.394;2024-03-02T03:27:14;42.60;;;21.17;;
85771;SDS011;76212;56.844;41.394;2024-03-02T03:29:40;42.83;;;22.15;;
85771;SDS011;76212;56.844;41.394;2024-03-02T03:32:09;39.08;;;20.40;;
85771;SDS011;76212;56.844;41.394;2024-03-02T03:34:35;39.58;;;20.65;;
85771;SDS011;76212;56.844;41.394;2024-03-02T03:37:02;38.20;;;19.38;;
85771;SDS011;76212;56.844;41.394;2024-03-02T03:39:29;43.50;;;21.45;;
85771;SDS011;76212;56.844;41.394;2024-03-02T03:41:55;44.50;;;23.42;;
85771;SDS011;76212;56.844;41.394;2024-03-02T03:44:21;47.80;;;24.10;;
85771;SDS011;76212;56.844;41.394;2024-03-02T03:46:48;44.45;;;23.13;;
85771;SDS011;76212;56.844;41.394;2024-03-02T03:49:14;69.93;;;34.50;;
85771;SDS011;76212;56.844;41.394;2024-03-02T03:51:40;86.05;;;39.13;;
85771;SDS011;76212;56.844;41.394;2024-03-02T03:54:07;45.35;;;24.48;;
85771;SDS011;76212;56.844;41.394;2024-03-02T03:56:34;44.60;;;22.38;;
85771;SDS011;76212;56.844;41.394;2024-03-02T03:59:00;44.47;;;23.38;;
85771;SDS011;76212;56.844;41.394;2024-03-02T04:01:26;51.38;;;25.25;;
85771;SDS011;76212;56.844;41.394;2024-03-02T04:03:52;35.83;;;19.17;;
85771;SDS011;76212;56.844;41.394;2024-03-02T04:06:20;48.20;;;20.98;;
85771;SDS011;76212;56.844;41.394;2024-03-02T04:08:47;38.53;;;20.13;;
85771;SDS011;76212;56.844;41.394;2024-03-02T04:11:14;35.92;;;19.80;;
85771;SDS011;76212;56.844;41.394;2024-03-02T04:13:40;35.33;;;20.52;;
85771;SDS011;76212;56.844;41.394;2024-03-02T04:16:06;38.00;;;20.15;;
85771;SDS011;76212;56.844;41.394;2024-03-02T04:18:32;43.10;;;20.42;;
85771;SDS011;76212;56.844;41.394;2024-03-02T04:20:59;38.30;;;18.92;;
85771;SDS011;76212;56.844;41.394;2024-03-02T04:23:28;37.47;;;18.67;;
85771;SDS011;76212;56.844;41.394;2024-03-02T04:25:55;40.20;;;18.50;;
85771;SDS011;76212;56.844;41.394;2024-03-02T04:28:21;39.28;;;18.08;;
85771;SDS011;76212;56.844;41.394;2024-03-02T04:30:47;32.28;;;17.48;;
85771;SDS011;76212;56.844;41.394;2024-03-02T04:33:13;34.58;;;17.42;;
85771;SDS011;76212;56.844;41.394;2024-03-02T04:35:40;32.85;;;16.42;;
85771;SDS011;76212;56.844;41.394;2024-03-02T04:38:06;33.33;;;17.05;;
85771;SDS011;76212;56.844;41.394;2024-03-02T04:40:32;28.75;;;15.88;;
85771;SDS011;76212;56.844;41.394;2024-03-02T04:42:59;33.40;;;16.90;;
85771;SDS011;76212;56.844;41.394;2024-03-02T04:45:25;30.48;;;16.50;;
85771;SDS011;76212;56.844;41.394;2024-03-02T04:47:51;33.45;;;18.05;;
85771;SDS011;76212;56.844;41.394;2024-03-02T04:50:18;29.20;;;16.73;;
85771;SDS011;76212;56.844;41.394;2024-03-02T04:52:47;29.95;;;15.27;;
85771;SDS011;76212;56.844;41.394;2024-03-02T04:55:13;33.00;;;16.98;;
85771;SDS011;76212;56.844;41.394;2024-03-02T04:57:42;34.28;;;17.83;;
85771;SDS011;76212;56.844;41.394;2024-03-02T05:00:09;69.63;;;28.40;;
85771;SDS011;76212;56.844;41.394;2024-03-02T05:02:36;78.65;;;31.65;;
85771;SDS011;76212;56.844;41.394;2024-03-02T05:05:02;52.17;;;23.60;;
85771;SDS011;76212;56.844;41.394;2024-03-02T05:07:28;51.42;;;25.40;;
85771;SDS011;76212;56.844;41.394;2024-03-02T05:09:55;62.08;;;28.10;;
85771;SDS011;76212;56.844;41.394;2024-03-02T05:12:21;79.45;;;33.33;;
85771;SDS011;76212;56.844;41.394;2024-03-02T05:15:06;63.38;;;29.90;;
85771;SDS011;76212;56.844;41.394;2024-03-02T05:17:36;57.05;;;25.30;;
85771;SDS011;76212;56.844;41.394;2024-03-02T05:20:04;37.55;;;17.67;;
85771;SDS011;76212;56.844;41.394;2024-03-02T05:22:31;23.48;;;12.93;;
85771;SDS011;76212;56.844;41.394;2024-03-02T05:24:59;27.08;;;14.93;;
85771;SDS011;76212;56.844;41.394;2024-03-02T05:27:27;24.52;;;13.25;;
85771;SDS011;76212;56.844;41.394;2024-03-02T05:29:53;33.45;;;16.27;;
85771;SDS011;76212;56.844;41.394;2024-03-02T05:32:20;32.08;;;17.45;;
85771;SDS011;76212;56.844;41.394;2024-03-02T05:34:46;34.33;;;18.40;;
85771;SDS011;76212;56.844;41.394;2024-03-02T05:37:12;32.13;;;15.38;;
85771;SDS011;76212;56.844;41.394;2024-03-02T05:39:39;30.77;;;17.35;;
85771;SDS011;76212;56.844;41.394;2024-03-02T05:42:05;24.35;;;14.57;;
85771;SDS011;76212;56.844;41.394;2024-03-02T05:44:32;23.52;;;14.10;;
85771;SDS011;76212;56.844;41.394;2024-03-02T05:46:58;28.60;;;15.30;;
85771;SDS011;76212;56.844;41.394;2024-03-02T05:49:24;25.58;;;13.85;;
85771;SDS011;76212;56.844;41.394;2024-03-02T05:51:51;23.10;;;13.70;;
85771;SDS011;76212;56.844;41.394;2024-03-02T05:54:17;17.63;;;10.38;;
85771;SDS011;76212;56.844;41.394;2024-03-02T05:56:44;18.80;;;11.40;;
85771;SDS011;76212;56.844;41.394;2024-03-02T05:59:10;22.13;;;11.10;;
85771;SDS011;76212;56.844;41.394;2024-03-02T06:01:42;18.45;;;11.02;;
85771;SDS011;76212;56.844;41.394;2024-03-02T06:04:10;19.45;;;11.35;;
85771;SDS011;76212;56.844;41.394;2024-03-02T06:06:39;20.52;;;11.80;;
85771;SDS011;76212;56.844;41.394;2024-03-02T06:09:06;16.55;;;8.88;;
85771;SDS011;76212;56.844;41.394;2024-03-02T06:11:37;13.90;;;9.48;;
85771;SDS011;76212;56.844;41.394;2024-03-02T06:14:07;14.15;;;8.95;;
85771;SDS011;76212;56.844;41.394;2024-03-02T06:16:34;16.38;;;9.07;;
85771;SDS011;76212;56.844;41.394;2024-03-02T06:19:01;16.85;;;10.60;;
85771;SDS011;76212;56.844;41.394;2024-03-02T06:21:27;17.65;;;9.32;;
85771;SDS011;76212;56.844;41.394;2024-03-02T06:23:54;16.10;;;9.98;;
85771;SDS011;76212;56.844;41.394;2024-03-02T06:26:20;14.50;;;9.10;;
85771;SDS011;76212;56.844;41.394;2024-03-02T06:28:47;15.73;;;9.60;;
85771;SDS011;76212;56.844;41.394;2024-03-02T06:31:13;13.07;;;7.68;;
85771;SDS011;76212;56.844;41.394;2024-03-02T06:33:39;14.30;;;7.80;;
85771;SDS011;76212;56.844;41.394;2024-03-02T06:36:07;14.88;;;7.70;;
85771;SDS011;76212;56.844;41.394;2024-03-02T06:38:37;12.60;;;8.15;;
85771;SDS011;76212;56.844;41.394;2024-03-02T06:41:06;10.82;;;7.60;;
85771;SDS011;76212;56.844;41.394;2024-03-02T06:43:32;16.75;;;8.48;;
85771;SDS011;76212;56.844;41.394;2024-03-02T06:45:59;12.77;;;8.30;;
85771;SDS011;76212;56.844;41.394;2024-03-02T06:48:25;10.05;;;7.07;;
85771;SDS011;76212;56.844;41.394;2024-03-02T06:50:51;15.13;;;7.28;;
85771;SDS011;76212;56.844;41.394;2024-03-02T06:53:18;9.20;;;5.95;;
85771;SDS011;76212;56.844;41.394;2024-03-02T06:55:45;12.48;;;7.25;;
85771;SDS011;76212;56.844;41.394;2024-03-02T06:58:13;10.52;;;5.80;;
85771;SDS011;76212;56.844;41.394;2024-03-02T07:00:41;9.43;;;6.35;;
85771;SDS011;76212;56.844;41.394;2024-03-02T07:03:08;10.50;;;5.78;;
85771;SDS011;76212;56.844;41.394;2024-03-02T07:05:34;6.60;;;4.40;;
85771;SDS011;76212;56.844;41.394;2024-03-02T07:08:01;11.45;;;5.25;;
85771;SDS011;76212;56.844;41.394;2024-03-02T07:10:28;16.13;;;9.93;;
85771;SDS011;76212;56.844;41.394;2024-03-02T07:12:54;10.43;;;7.25;;
85771;SDS011;76212;56.844;41.394;2024-03-02T07:15:21;12.27;;;7.50;;
85771;SDS011;76212;56.844;41.394;2024-03-02T07:17:53;10.40;;;5.95;;
85771;SDS011;76212;56.844;41.394;2024-03-02T07:20:20;14.10;;;7.80;;
85771;SDS011;76212;56.844;41.394;2024-03-02T07:22:46;12.02;;;7.45;;
85771;SDS011;76212;56.844;41.394;2024-03-02T07:25:12;12.80;;;8.68;;
85771;SDS011;76212;56.844;41.394;2024-03-02T07:27:39;11.45;;;7.07;;
85771;SDS011;76212;56.844;41.394;2024-03-02T07:30:06;11.15;;;8.02;;
85771;SDS011;76212;56.844;41.394;2024-03-02T07:32:33;14.15;;;9.18;;
85771;SDS011;76212;56.844;41.394;2024-03-02T07:34:59;19.00;;;12.35;;
85771;SDS011;76212;56.844;41.394;2024-03-02T07:37:27;35.55;;;18.63;;
85771;SDS011;76212;56.844;41.394;2024-03-02T07:39:53;23.05;;;14.00;;
85771;SDS011;76212;56.844;41.394;2024-03-02T07:42:20;24.90;;;15.18;;
85771;SDS011;76212;56.844;41.394;2024-03-02T07:44:46;16.73;;;11.10;;
85771;SDS011;76212;56.844;41.394;2024-03-02T07:47:12;24.35;;;12.48;;
85771;SDS011;76212;56.844;41.394;2024-03-02T07:49:39;33.78;;;16.55;;
85771;SDS011;76212;56.844;41.394;2024-03-02T07:52:05;24.83;;;11.75;;
85771;SDS011;76212;56.844;41.394;2024-03-02T07:54:33;49.58;;;17.00;;
85771;SDS011;76212;56.844;41.394;2024-03-02T07:56:59;50.17;;;16.73;;
85771;SDS011;76212;56.844;41.394;2024-03-02T07:59:25;12.40;;;5.25;;
85771;SDS011;76212;56.844;41.394;2024-03-02T08:01:52;8.30;;;4.07;;
85771;SDS011;76212;56.844;41.394;2024-03-02T08:04:20;8.73;;;4.82;;
85771;SDS011;76212;56.844;41.394;2024-03-02T08:06:47;7.18;;;4.78;;
85771;SDS011;76212;56.844;41.394;2024-03-02T08:09:13;4.72;;;3.60;;
85771;SDS011;76212;56.844;41.394;2024-03-02T08:11:40;9.65;;;5.55;;
85771;SDS011;76212;56.844;41.394;2024-03-02T08:14:06;18.15;;;5.80;;
85771;SDS011;76212;56.844;41.394;2024-03-02T08:16:32;3.95;;;3.00;;
85771;SDS011;76212;56.844;41.394;2024-03-02T08:18:59;13.27;;;5.55;;
85771;SDS011;76212;56.844;41.394;2024-03-02T08:21:25;15.15;;;6.68;;
85771;SDS011;76212;56.844;41.394;2024-03-02T08:23:52;7.43;;;4.38;;
85771;SDS011;76212;56.844;41.394;2024-03-02T08:26:18;9.35;;;4.28;;
85771;SDS011;76212;56.844;41.394;2024-03-02T08:28:44;5.25;;;3.00;;
85771;SDS011;76212;56.844;41.394;2024-03-02T08:31:11;8.25;;;4.40;;
85771;SDS011;76212;56.844;41.394;2024-03-02T08:33:40;5.63;;;3.10;;
85771;SDS011;76212;56.844;41.394;2024-03-02T08:36:06;7.88;;;4.10;;
85771;SDS011;76212;56.844;41.394;2024-03-02T08:38:35;32.17;;;9.52;;
85771;SDS011;76212;56.844;41.394;2024-03-02T08:41:04;21.30;;;6.38;;
85771;SDS011;76212;56.844;41.394;2024-03-02T08:43:31;20.60;;;6.88;;
85771;SDS011;76212;56.844;41.394;2024-03-02T08:45:57;8.43;;;4.13;;
85771;SDS011;76212;56.844;41.394;2024-03-02T08:48:24;16.60;;;6.30;;
85771;SDS011;76212;56.844;41.394;2024-03-02T08:50:52;26.23;;;7.93;;
85771;SDS011;76212;56.844;41.394;2024-03-02T08:53:19;16.63;;;6.65;;
85771;SDS011;76212;56.844;41.394;2024-03-02T08:55:48;32.22;;;9.35;;
85771;SDS011;76212;56.844;41.394;2024-03-02T08:58:14;45.92;;;12.77;;
85771;SDS011;76212;56.844;41.394;2024-03-02T09:00:41;12.82;;;4.78;;
85771;SDS011;76212;56.844;41.394;2024-03-02T09:03:07;5.00;;;3.25;;
85771;SDS011;76212;56.844;41.394;2024-03-02T09:05:34;13.98;;;6.70;;
85771;SDS011;76212;56.844;41.394;2024-03-02T09:08:00;29.60;;;13.23;;
85771;SDS011;76212;56.844;41.394;2024-03-02T09:10:27;48.47;;;19.85;;
85771;SDS011;76212;56.844;41.394;2024-03-02T09:12:53;18.95;;;8.43;;
85771;SDS011;76212;56.844;41.394;2024-03-02T09:15:19;8.30;;;4.25;;
85771;SDS011;76212;56.844;41.394;2024-03-02T09:17:46;5.20;;;3.13;;
85771;SDS011;76212;56.844;41.394;2024-03-02T09:20:12;20.73;;;9.32;;
85771;SDS011;76212;56.844;41.394;2024-03-02T09:22:39;4.22;;;2.50;;
85771;SDS011;76212;56.844;41.394;2024-03-02T09:25:07;4.75;;;2.83;;
85771;SDS011;76212;56.844;41.394;2024-03-02T09:27:38;4.35;;;2.58;;
85771;SDS011;76212;56.844;41.394;2024-03-02T09:30:06;4.35;;;3.05;;
85771;SDS011;76212;56.844;41.394;2024-03-02T09:32:34;3.72;;;3.08;;
85771;SDS011;76212;56.844;41.394;2024-03-02T09:35:01;5.28;;;3.10;;
85771;SDS011;76212;56.844;41.394;2024-03-02T09:37:27;4.05;;;2.30;;
85771;SDS011;76212;56.844;41.394;2024-03-02T09:39:54;5.90;;;3.22;;
85771;SDS011;76212;56.844;41.394;2024-03-02T09:42:23;5.72;;;3.92;;
85771;SDS011;76212;56.844;41.394;2024-03-02T09:44:52;11.13;;;4.03;;
85771;SDS011;76212;56.844;41.394;2024-03-02T09:47:19;4.30;;;2.40;;
85771;SDS011;76212;56.844;41.394;2024-03-02T09:49:46;4.40;;;2.90;;
85771;SDS011;76212;56.844;41.394;2024-03-02T09:52:12;20.10;;;11.57;;
85771;SDS011;76212;56.844;41.394;2024-03-02T09:54:40;7.30;;;4.30;;
85771;SDS011;76212;56.844;41.394;2024-03-02T09:57:06;4.82;;;2.97;;
85771;SDS011;76212;56.844;41.394;2024-03-02T09:59:33;5.78;;;2.90;;
85771;SDS011;76212;56.844;41.394;2024-03-02T10:02:03;3.90;;;3.08;;
85771;SDS011;76212;56.844;41.394;2024-03-02T10:04:33;5.68;;;3.20;;
85771;SDS011;76212;56.844;41.394;2024-03-02T10:07:11;8.32;;;4.22;;
85771;SDS011;76212;56.844;41.394;2024-03-02T10:09:39;9.30;;;7.03;;
85771;SDS011;76212;56.844;41.394;2024-03-02T10:12:07;9.77;;;7.57;;
85771;SDS011;76212;56.844;41.394;2024-03-02T10:14:35;17.77;;;8.13;;
85771;SDS011;76212;56.844;41.394;2024-03-02T10:17:11;9.82;;;6.22;;
85771;SDS011;76212;56.844;41.394;2024-03-02T10:19:39;4.30;;;3.35;;
85771;SDS011;76212;56.844;41.394;2024-03-02T10:22:07;5.43;;;3.30;;
85771;SDS011;76212;56.844;41.394;2024-03-02T10:24:52;5.55;;;4.28;;
85771;SDS011;76212;56.844;41.394;2024-03-02T10:27:23;6.82;;;4.03;;
85771;SDS011;76212;56.844;41.394;2024-03-02T10:29:54;5.32;;;2.97;;
85771;SDS011;76212;56.844;41.394;2024-03-02T10:32:22;10.57;;;4.10;;
85771;SDS011;76212;56.844;41.394;2024-03-02T10:34:49;12.43;;;7.20;;
85771;SDS011;76212;56.844;41.394;2024-03-02T10:37:16;12.82;;;10.15;;
85771;SDS011;76212;56.844;41.394;2024-03-02T10:39:48;10.70;;;8.30;;
85771;SDS011;76212;56.844;41.394;2024-03-02T10:42:14;16.77;;;10.55;;
85771;SDS011;76212;56.844;41.394;2024-03-02T10:44:42;16.13;;;10.75;;
85771;SDS011;76212;56.844;41.394;2024-03-02T10:47:09;20.73;;;11.85;;
85771;SDS011;76212;56.844;41.394;2024-03-02T10:49:39;73.78;;;33.42;;
85771;SDS011;76212;56.844;41.394;2024-03-02T10:52:09;36.22;;;19.58;;
85771;SDS011;76212;56.844;41.394;2024-03-02T10:54:35;32.95;;;19.33;;
85771;SDS011;76212;56.844;41.394;2024-03-02T10:57:02;38.78;;;18.08;;
85771;SDS011;76212;56.844;41.394;2024-03-02T11:02:05;22.65;;;10.95;;
85771;SDS011;76212;56.844;41.394;2024-03-02T11:04:34;22.27;;;14.70;;
85771;SDS011;76212;56.844;41.394;2024-03-02T11:07:04;13.07;;;7.95;;
85771;SDS011;76212;56.844;41.394;2024-03-02T11:09:37;8.38;;;4.63;;
85771;SDS011;76212;56.844;41.394;2024-03-02T11:15:03;5.90;;;3.75;;
85771;SDS011;76212;56.844;41.394;2024-03-02T11:17:35;6.53;;;3.20;;
85771;SDS011;76212;56.844;41.394;2024-03-02T11:20:03;6.32;;;3.60;;
85771;SDS011;76212;56.844;41.394;2024-03-02T11:22:31;4.78;;;3.05;;
85771;SDS011;76212;56.844;41.394;2024-03-02T11:24:57;4.68;;;3.33;;
85771;SDS011;76212;56.844;41.394;2024-03-02T11:33:01;3.83;;;3.10;;
85771;SDS011;76212;56.844;41.394;2024-03-02T11:35:35;3.63;;;2.70;;
85771;SDS011;76212;56.844;41.394;2024-03-02T11:38:03;6.65;;;3.65;;
85771;SDS011;76212;56.844;41.394;2024-03-02T11:40:30;4.30;;;2.95;;
85771;SDS011;76212;56.844;41.394;2024-03-02T11:42:57;4.65;;;3.13;;
85771;SDS011;76212;56.844;41.394;2024-03-02T11:45:26;4.40;;;3.17;;
85771;SDS011;76212;56.844;41.394;2024-03-02T11:47:56;5.03;;;3.22;;
85771;SDS011;76212;56.844;41.394;2024-03-02T11:50:30;4.13;;;3.03;;
85771;SDS011;76212;56.844;41.394;2024-03-02T11:52:59;5.13;;;3.28;;
85771;SDS011;76212;56.844;41.394;2024-03-02T11:55:26;5.63;;;3.28;;
85771;SDS011;76212;56.844;41.394;2024-03-02T11:57:54;4.30;;;3.53;;
85771;SDS011;76212;56.844;41.394;2024-03-02T12:00:21;4.53;;;3.13;;
85771;SDS011;76212;56.844;41.394;2024-03-02T12:02:47;6.20;;;3.55;;
85771;SDS011;76212;56.844;41.394;2024-03-02T12:05:27;4.25;;;2.78;;
85771;SDS011;76212;56.844;41.394;2024-03-02T12:07:55;6.18;;;2.72;;
85771;SDS011;76212;56.844;41.394;2024-03-02T12:10:28;5.55;;;2.55;;
85771;SDS011;76212;56.844;41.394;2024-03-02T12:12:56;4.25;;;2.60;;
85771;SDS011;76212;56.844;41.394;2024-03-02T12:15:24;6.65;;;3.38;;
85771;SDS011;76212;56.844;41.394;2024-03-02T12:17:58;4.10;;;2.97;;
85771;SDS011;76212;56.844;41.394;2024-03-02T12:20:26;4.50;;;3.17;;
85771;SDS011;76212;56.844;41.394;2024-03-02T12:22:58;4.95;;;3.42;;
85771;SDS011;76212;56.844;41.394;2024-03-02T12:25:25;4.85;;;3.40;;
85771;SDS011;76212;56.844;41.394;2024-03-02T12:27:56;5.47;;;3.65;;
85771;SDS011;76212;56.844;41.394;2024-03-02T12:30:24;5.35;;;2.92;;
85771;SDS011;76212;56.844;41.394;2024-03-02T12:32:52;3.97;;;2.35;;
85771;SDS011;76212;56.844;41.394;2024-03-02T12:35:18;3.78;;;2.83;;
85771;SDS011;76212;56.844;41.394;2024-03-02T12:37:46;5.78;;;2.92;;
85771;SDS011;76212;56.844;41.394;2024-03-02T12:40:14;4.75;;;2.78;;
85771;SDS011;76212;56.844;41.394;2024-03-02T12:42:43;5.15;;;3.30;;
85771;SDS011;76212;56.844;41.394;2024-03-02T12:45:11;5.43;;;3.33;;
85771;SDS011;76212;56.844;41.394;2024-03-02T12:47:39;4.82;;;3.55;;
85771;SDS011;76212;56.844;41.394;2024-03-02T12:50:06;10.05;;;5.30;;
85771;SDS011;76212;56.844;41.394;2024-03-02T12:52:33;12.55;;;6.72;;
85771;SDS011;76212;56.844;41.394;2024-03-02T12:55:01;17.88;;;8.02;;
85771;SDS011;76212;56.844;41.394;2024-03-02T12:57:30;18.60;;;9.70;;
85771;SDS011;76212;56.844;41.394;2024-03-02T13:00:03;16.00;;;8.68;;
85771;SDS011;76212;56.844;41.394;2024-03-02T13:02:41;15.70;;;8.15;;
85771;SDS011;76212;56.844;41.394;2024-03-02T13:05:08;22.08;;;12.52;;
85771;SDS011;76212;56.844;41.394;2024-03-02T13:07:37;35.53;;;18.63;;
85771;SDS011;76212;56.844;41.394;2024-03-02T13:10:06;35.97;;;18.77;;
85771;SDS011;76212;56.844;41.394;2024-03-02T13:12:36;24.38;;;13.18;;
85771;SDS011;76212;56.844;41.394;2024-03-02T13:15:03;17.58;;;8.70;;
85771;SDS011;76212;56.844;41.394;2024-03-02T13:17:31;16.52;;;7.85;;
85771;SDS011;76212;56.844;41.394;2024-03-02T13:19:59;5.40;;;2.72;;
85771;SDS011;76212;56.844;41.394;2024-03-02T13:22:26;4.60;;;2.70;;
85771;SDS011;76212;56.844;41.394;2024-03-02T13:24:53;4.18;;;2.80;;
85771;SDS011;76212;56.844;41.394;2024-03-02T13:27:23;4.00;;;2.33;;
85771;SDS011;76212;56.844;41.394;2024-03-02T13:29:49;4.68;;;2.58;;
85771;SDS011;76212;56.844;41.394;2024-03-02T13:32:16;3.90;;;2.60;;
85771;SDS011;76212;56.844;41.394;2024-03-02T13:34:42;3.75;;;2.50;;
85771;SDS011;76212;56.844;41.394;2024-03-02T13:37:09;5.07;;;4.53;;
85771;SDS011;76212;56.844;41.394;2024-03-02T13:39:35;5.53;;;2.63;;
85771;SDS011;76212;56.844;41.394;2024-03-02T13:42:08;2.70;;;2.05;;
85771;SDS011;76212;56.844;41.394;2024-03-02T13:44:42;4.60;;;3.20;;
85771;SDS011;76212;56.844;41.394;2024-03-02T13:47:11;7.50;;;4.40;;
85771;SDS011;76212;56.844;41.394;2024-03-02T13:49:37;38.40;;;26.15;;
85771;SDS011;76212;56.844;41.394;2024-03-02T13:52:07;20.58;;;8.93;;
85771;SDS011;76212;56.844;41.394;2024-03-02T13:54:39;15.40;;;8.30;;
85771;SDS011;76212;56.844;41.394;2024-03-02T13:57:06;6.43;;;3.90;;
85771;SDS011;76212;56.844;41.394;2024-03-02T13:59:33;4.75;;;3.15;;
85771;SDS011;76212;56.844;41.394;2024-03-02T14:02:01;3.70;;;2.38;;
85771;SDS011;76212;56.844;41.394;2024-03-02T14:04:33;4.13;;;2.53;;
85771;SDS011;76212;56.844;41.394;2024-03-02T14:07:00;5.78;;;2.95;;
85771;SDS011;76212;56.844;41.394;2024-03-02T14:09:27;82.65;;;30.67;;
85771;SDS011;76212;56.844;41.394;2024-03-02T14:11:54;44.72;;;16.65;;
85771;SDS011;76212;56.844;41.394;2024-03-02T14:14:21;13.07;;;5.93;;
85771;SDS011;76212;56.844;41.394;2024-03-02T14:16:48;71.50;;;26.10;;
85771;SDS011;76212;56.844;41.394;2024-03-02T14:19:15;102.57;;;37.88;;
85771;SDS011;76212;56.844;41.394;2024-03-02T14:21:41;135.55;;;44.78;;
85771;SDS011;76212;56.844;41.394;2024-03-02T14:24:08;156.77;;;56.08;;
85771;SDS011;76212;56.844;41.394;2024-03-02T14:26:35;73.30;;;27.38;;
85771;SDS011;76212;56.844;41.394;2024-03-02T14:29:03;29.35;;;12.63;;
85771;SDS011;76212;56.844;41.394;2024-03-02T14:31:29;10.48;;;7.10;;
85771;SDS011;76212;56.844;41.394;2024-03-02T14:34:02;12.70;;;6.95;;
85771;SDS011;76212;56.844;41.394;2024-03-02T14:36:28;40.10;;;17.63;;
85771;SDS011;76212;56.844;41.394;2024-03-02T14:38:57;65.00;;;26.38;;
85771;SDS011;76212;56.844;41.394;2024-03-02T14:41:24;100.43;;;40.75;;